sensor_id;sensor_type;location;lat;lon;timestamp;P1;durP1;ratioP1;P2;durP2;ratioP2
39176;SDS011;24904;52.208;21.192;2023-04-06T00:02:48;15.30;;;7.20;;
39176;SDS011;24904;52.208;21.192;2023-04-06T00:07:53;12.20;;;6.40;;
39176;SDS011;24904;52.208;21.192;2023-04-06T00:12:57;16.40;;;7.70;;
39176;SDS011;24904;52.208;21.192;2023-04-06T00:18:01;15.20;;;7.30;;
39176;SDS011;24904;52.208;21.192;2023-04-06T00:31:44;12.90;;;7.10;;
39176;SDS011;24904;52.208;21.192;2023-04-06T00:36:49;16.20;;;7.90;;
39176;SDS011;24904;52.208;21.192;2023-04-06T00:41:54;15.20;;;7.00;;
39176;SDS011;24904;52.208;21.192;2023-04-06T00:47:00;16.20;;;8.30;;
39176;SDS011;24904;52.208;21.192;2023-04-06T00:52:05;14.70;;;7.60;;
39176;SDS011;24904;52.208;21.192;2023-04-06T00:57:10;16.50;;;7.30;;
39176;SDS011;24904;52.208;21.192;2023-04-06T01:02:17;14.90;;;7.60;;
39176;SDS011;24904;52.208;21.192;2023-04-06T01:07:24;13.20;;;7.00;;
39176;SDS011;24904;52.208;21.192;2023-04-06T01:12:43;14.80;;;7.20;;
39176;SDS011;24904;52.208;21.192;2023-04-06T01:17:54;17.80;;;8.00;;
39176;SDS011;24904;52.208;21.192;2023-04-06T01:23:00;13.10;;;7.60;;
39176;SDS011;24904;52.208;21.192;2023-04-06T01:28:06;13.40;;;7.10;;
39176;SDS011;24904;52.208;21.192;2023-04-06T01:33:26;12.90;;;7.00;;
39176;SDS011;24904;52.208;21.192;2023-04-06T01:38:36;15.00;;;7.60;;
39176;SDS011;24904;52.208;21.192;2023-04-06T01:43:42;14.40;;;6.50;;
39176;SDS011;24904;52.208;21.192;2023-04-06T01:48:49;12.50;;;6.30;;
39176;SDS011;24904;52.208;21.192;2023-04-06T01:54:04;18.60;;;7.80;;
39176;SDS011;24904;52.208;21.192;2023-04-06T01:59:17;16.40;;;7.40;;
39176;SDS011;24904;52.208;21.192;2023-04-06T02:04:22;13.70;;;7.70;;
39176;SDS011;24904;52.208;21.192;2023-04-06T02:09:32;13.30;;;7.00;;
39176;SDS011;24904;52.208;21.192;2023-04-06T02:14:39;14.20;;;7.30;;
39176;SDS011;24904;52.208;21.192;2023-04-06T02:19:45;18.00;;;7.70;;
39176;SDS011;24904;52.208;21.192;2023-04-06T02:24:50;15.20;;;7.40;;
39176;SDS011;24904;52.208;21.192;2023-04-06T02:29:55;12.40;;;6.90;;
39176;SDS011;24904;52.208;21.192;2023-04-06T02:35:00;14.10;;;7.50;;
39176;SDS011;24904;52.208;21.192;2023-04-06T02:40:09;11.60;;;6.30;;
39176;SDS011;24904;52.208;21.192;2023-04-06T02:45:15;12.80;;;6.40;;
39176;SDS011;24904;52.208;21.192;2023-04-06T02:50:22;13.30;;;6.30;;
39176;SDS011;24904;52.208;21.192;2023-04-06T02:55:35;10.60;;;5.50;;
39176;SDS011;24904;52.208;21.192;2023-04-06T03:00:40;14.00;;;5.90;;
39176;SDS011;24904;52.208;21.192;2023-04-06T03:05:45;12.70;;;6.30;;
39176;SDS011;24904;52.208;21.192;2023-04-06T03:10:52;11.30;;;6.10;;
39176;SDS011;24904;52.208;21.192;2023-04-06T03:21:05;12.70;;;6.70;;
39176;SDS011;24904;52.208;21.192;2023-04-06T03:26:19;13.10;;;6.30;;
39176;SDS011;24904;52.208;21.192;2023-04-06T03:31:26;11.50;;;6.10;;
39176;SDS011;24904;52.208;21.192;2023-04-06T03:36:41;12.50;;;6.70;;
39176;SDS011;24904;52.208;21.192;2023-04-06T03:41:46;15.10;;;7.00;;
39176;SDS011;24904;52.208;21.192;2023-04-06T03:47:12;16.00;;;7.10;;
39176;SDS011;24904;52.208;21.192;2023-04-06T03:52:17;15.60;;;7.40;;
39176;SDS011;24904;52.208;21.192;2023-04-06T03:57:26;15.70;;;7.00;;
39176;SDS011;24904;52.208;21.192;2023-04-06T04:02:33;17.40;;;7.30;;
39176;SDS011;24904;52.208;21.192;2023-04-06T04:07:38;13.60;;;7.00;;
39176;SDS011;24904;52.208;21.192;2023-04-06T04:12:44;16.80;;;8.00;;
39176;SDS011;24904;52.208;21.192;2023-04-06T04:17:50;17.80;;;8.30;;
39176;SDS011;24904;52.208;21.192;2023-04-06T04:22:55;17.20;;;8.40;;
39176;SDS011;24904;52.208;21.192;2023-04-06T04:28:00;13.90;;;7.50;;
39176;SDS011;24904;52.208;21.192;2023-04-06T04:33:06;18.20;;;8.30;;
39176;SDS011;24904;52.208;21.192;2023-04-06T04:38:12;17.00;;;8.20;;
39176;SDS011;24904;52.208;21.192;2023-04-06T04:43:18;15.10;;;7.20;;
39176;SDS011;24904;52.208;21.192;2023-04-06T04:48:24;17.10;;;7.60;;
39176;SDS011;24904;52.208;21.192;2023-04-06T04:58:43;17.80;;;7.60;;
39176;SDS011;24904;52.208;21.192;2023-04-06T05:03:48;16.20;;;8.00;;
39176;SDS011;24904;52.208;21.192;2023-04-06T05:08:54;15.60;;;7.00;;
39176;SDS011;24904;52.208;21.192;2023-04-06T05:13:59;19.50;;;7.60;;
39176;SDS011;24904;52.208;21.192;2023-04-06T05:19:05;18.30;;;7.20;;
39176;SDS011;24904;52.208;21.192;2023-04-06T05:31:03;10.20;;;6.00;;
39176;SDS011;24904;52.208;21.192;2023-04-06T05:36:13;12.30;;;6.20;;
39176;SDS011;24904;52.208;21.192;2023-04-06T05:41:19;11.60;;;5.50;;
39176;SDS011;24904;52.208;21.192;2023-04-06T05:46:23;11.40;;;5.30;;
39176;SDS011;24904;52.208;21.192;2023-04-06T05:51:28;12.10;;;5.30;;
39176;SDS011;24904;52.208;21.192;2023-04-06T05:56:31;12.70;;;5.40;;
39176;SDS011;24904;52.208;21.192;2023-04-06T06:01:35;9.70;;;4.80;;
39176;SDS011;24904;52.208;21.192;2023-04-06T06:06:40;9.70;;;4.00;;
39176;SDS011;24904;52.208;21.192;2023-04-06T06:11:52;12.30;;;4.60;;
39176;SDS011;24904;52.208;21.192;2023-04-06T06:16:58;7.70;;;4.40;;
39176;SDS011;24904;52.208;21.192;2023-04-06T06:22:02;10.30;;;4.80;;
39176;SDS011;24904;52.208;21.192;2023-04-06T06:27:08;7.40;;;4.70;;
39176;SDS011;24904;52.208;21.192;2023-04-06T06:32:12;11.00;;;4.40;;
39176;SDS011;24904;52.208;21.192;2023-04-06T06:37:16;7.90;;;3.90;;
39176;SDS011;24904;52.208;21.192;2023-04-06T06:42:19;16.50;;;4.00;;
39176;SDS011;24904;52.208;21.192;2023-04-06T06:47:31;8.50;;;3.40;;
39176;SDS011;24904;52.208;21.192;2023-04-06T06:52:35;7.70;;;3.90;;
39176;SDS011;24904;52.208;21.192;2023-04-06T06:57:38;5.80;;;3.00;;
39176;SDS011;24904;52.208;21.192;2023-04-06T07:02:43;6.40;;;3.60;;
39176;SDS011;24904;52.208;21.192;2023-04-06T07:07:47;5.60;;;3.50;;
39176;SDS011;24904;52.208;21.192;2023-04-06T07:12:50;8.70;;;3.50;;
39176;SDS011;24904;52.208;21.192;2023-04-06T07:26:30;4.30;;;2.50;;
39176;SDS011;24904;52.208;21.192;2023-04-06T07:31:33;4.80;;;2.70;;
39176;SDS011;24904;52.208;21.192;2023-04-06T07:36:38;4.90;;;2.90;;
39176;SDS011;24904;52.208;21.192;2023-04-06T07:41:41;4.50;;;2.50;;
39176;SDS011;24904;52.208;21.192;2023-04-06T07:46:44;9.80;;;3.10;;
39176;SDS011;24904;52.208;21.192;2023-04-06T07:51:48;5.00;;;2.90;;
39176;SDS011;24904;52.208;21.192;2023-04-06T07:56:51;5.20;;;3.20;;
39176;SDS011;24904;52.208;21.192;2023-04-06T08:01:55;5.60;;;2.90;;
39176;SDS011;24904;52.208;21.192;2023-04-06T08:06:58;6.50;;;3.10;;
39176;SDS011;24904;52.208;21.192;2023-04-06T08:12:01;6.30;;;3.00;;
39176;SDS011;24904;52.208;21.192;2023-04-06T08:17:05;5.80;;;3.30;;
39176;SDS011;24904;52.208;21.192;2023-04-06T08:22:08;6.80;;;3.20;;
39176;SDS011;24904;52.208;21.192;2023-04-06T08:27:11;6.60;;;3.40;;
39176;SDS011;24904;52.208;21.192;2023-04-06T08:32:15;8.60;;;3.70;;
39176;SDS011;24904;52.208;21.192;2023-04-06T08:37:19;7.30;;;3.00;;
39176;SDS011;24904;52.208;21.192;2023-04-06T08:42:22;5.20;;;3.20;;
39176;SDS011;24904;52.208;21.192;2023-04-06T08:47:30;5.80;;;3.10;;
39176;SDS011;24904;52.208;21.192;2023-04-06T08:52:33;6.90;;;3.10;;
39176;SDS011;24904;52.208;21.192;2023-04-06T08:57:37;5.00;;;2.80;;
39176;SDS011;24904;52.208;21.192;2023-04-06T09:02:42;5.50;;;3.20;;
39176;SDS011;24904;52.208;21.192;2023-04-06T09:07:47;6.00;;;3.80;;
39176;SDS011;24904;52.208;21.192;2023-04-06T09:12:50;9.00;;;3.80;;
39176;SDS011;24904;52.208;21.192;2023-04-06T09:18:04;6.00;;;3.40;;
39176;SDS011;24904;52.208;21.192;2023-04-06T09:23:07;7.60;;;3.30;;
39176;SDS011;24904;52.208;21.192;2023-04-06T09:28:20;6.30;;;3.20;;
39176;SDS011;24904;52.208;21.192;2023-04-06T09:33:23;6.50;;;3.90;;
39176;SDS011;24904;52.208;21.192;2023-04-06T09:38:26;8.60;;;3.60;;
39176;SDS011;24904;52.208;21.192;2023-04-06T09:43:30;6.40;;;3.00;;
39176;SDS011;24904;52.208;21.192;2023-04-06T09:48:33;6.10;;;3.40;;
39176;SDS011;24904;52.208;21.192;2023-04-06T10:02:50;7.80;;;3.10;;
39176;SDS011;24904;52.208;21.192;2023-04-06T10:07:59;6.50;;;3.60;;
39176;SDS011;24904;52.208;21.192;2023-04-06T10:13:09;5.90;;;3.70;;
39176;SDS011;24904;52.208;21.192;2023-04-06T10:18:15;5.60;;;3.50;;
39176;SDS011;24904;52.208;21.192;2023-04-06T10:23:22;6.00;;;3.60;;
39176;SDS011;24904;52.208;21.192;2023-04-06T10:28:33;8.50;;;3.90;;
39176;SDS011;24904;52.208;21.192;2023-04-06T10:33:40;8.00;;;3.60;;
39176;SDS011;24904;52.208;21.192;2023-04-06T10:38:57;8.30;;;4.70;;
39176;SDS011;24904;52.208;21.192;2023-04-06T10:44:04;5.90;;;3.70;;
39176;SDS011;24904;52.208;21.192;2023-04-06T10:49:12;7.00;;;3.60;;
39176;SDS011;24904;52.208;21.192;2023-04-06T10:54:17;5.70;;;3.90;;
39176;SDS011;24904;52.208;21.192;2023-04-06T10:59:24;7.70;;;4.40;;
39176;SDS011;24904;52.208;21.192;2023-04-06T11:04:31;7.80;;;4.20;;
39176;SDS011;24904;52.208;21.192;2023-04-06T11:09:37;6.50;;;3.90;;
39176;SDS011;24904;52.208;21.192;2023-04-06T11:14:51;5.80;;;3.80;;
39176;SDS011;24904;52.208;21.192;2023-04-06T11:19:57;7.40;;;3.90;;
39176;SDS011;24904;52.208;21.192;2023-04-06T11:25:06;7.80;;;4.30;;
39176;SDS011;24904;52.208;21.192;2023-04-06T11:30:14;6.40;;;4.00;;
39176;SDS011;24904;52.208;21.192;2023-04-06T11:35:23;6.90;;;4.00;;
39176;SDS011;24904;52.208;21.192;2023-04-06T11:40:28;9.50;;;4.60;;
39176;SDS011;24904;52.208;21.192;2023-04-06T11:45:40;7.30;;;4.20;;
39176;SDS011;24904;52.208;21.192;2023-04-06T11:50:47;8.80;;;3.70;;
39176;SDS011;24904;52.208;21.192;2023-04-06T11:55:58;7.50;;;4.30;;
39176;SDS011;24904;52.208;21.192;2023-04-06T12:01:06;7.30;;;4.40;;
39176;SDS011;24904;52.208;21.192;2023-04-06T12:06:11;7.30;;;4.20;;
39176;SDS011;24904;52.208;21.192;2023-04-06T12:11:17;8.40;;;3.90;;
39176;SDS011;24904;52.208;21.192;2023-04-06T12:16:23;7.60;;;4.20;;
39176;SDS011;24904;52.208;21.192;2023-04-06T12:21:29;7.90;;;4.30;;
39176;SDS011;24904;52.208;21.192;2023-04-06T12:26:35;7.90;;;3.70;;
39176;SDS011;24904;52.208;21.192;2023-04-06T12:31:40;6.10;;;3.50;;
39176;SDS011;24904;52.208;21.192;2023-04-06T12:36:46;7.90;;;4.40;;
39176;SDS011;24904;52.208;21.192;2023-04-06T12:41:52;6.60;;;4.00;;
39176;SDS011;24904;52.208;21.192;2023-04-06T12:46:58;7.10;;;4.20;;
39176;SDS011;24904;52.208;21.192;2023-04-06T12:52:03;6.50;;;3.90;;
39176;SDS011;24904;52.208;21.192;2023-04-06T12:57:08;6.60;;;4.20;;
39176;SDS011;24904;52.208;21.192;2023-04-06T13:02:14;7.00;;;4.50;;
39176;SDS011;24904;52.208;21.192;2023-04-06T13:07:19;7.40;;;4.00;;
39176;SDS011;24904;52.208;21.192;2023-04-06T13:12:25;8.40;;;4.10;;
39176;SDS011;24904;52.208;21.192;2023-04-06T13:17:30;7.70;;;4.10;;
39176;SDS011;24904;52.208;21.192;2023-04-06T13:22:35;6.60;;;4.00;;
39176;SDS011;24904;52.208;21.192;2023-04-06T13:27:40;7.90;;;4.00;;
39176;SDS011;24904;52.208;21.192;2023-04-06T13:32:48;10.50;;;5.00;;
39176;SDS011;24904;52.208;21.192;2023-04-06T13:37:53;10.20;;;4.70;;
39176;SDS011;24904;52.208;21.192;2023-04-06T13:42:58;10.60;;;5.40;;
39176;SDS011;24904;52.208;21.192;2023-04-06T13:51:17;7.20;;;4.30;;
39176;SDS011;24904;52.208;21.192;2023-04-06T13:56:20;8.50;;;4.50;;
39176;SDS011;24904;52.208;21.192;2023-04-06T14:01:23;7.00;;;4.10;;
39176;SDS011;24904;52.208;21.192;2023-04-06T14:06:27;7.70;;;4.70;;
39176;SDS011;24904;52.208;21.192;2023-04-06T14:11:31;7.60;;;5.00;;
39176;SDS011;24904;52.208;21.192;2023-04-06T14:16:34;6.40;;;4.30;;
39176;SDS011;24904;52.208;21.192;2023-04-06T14:21:37;11.10;;;5.00;;
39176;SDS011;24904;52.208;21.192;2023-04-06T14:26:40;10.50;;;5.20;;
39176;SDS011;24904;52.208;21.192;2023-04-06T14:31:45;9.80;;;5.50;;
39176;SDS011;24904;52.208;21.192;2023-04-06T14:36:48;9.10;;;5.20;;
39176;SDS011;24904;52.208;21.192;2023-04-06T14:41:51;10.30;;;5.50;;
39176;SDS011;24904;52.208;21.192;2023-04-06T14:46:54;9.10;;;5.60;;
39176;SDS011;24904;52.208;21.192;2023-04-06T14:51:57;9.70;;;5.40;;
39176;SDS011;24904;52.208;21.192;2023-04-06T14:57:02;7.80;;;4.90;;
39176;SDS011;24904;52.208;21.192;2023-04-06T15:02:05;9.10;;;5.00;;
39176;SDS011;24904;52.208;21.192;2023-04-06T15:07:08;9.20;;;5.40;;
39176;SDS011;24904;52.208;21.192;2023-04-06T15:12:12;10.50;;;5.80;;
39176;SDS011;24904;52.208;21.192;2023-04-06T15:17:15;9.60;;;5.20;;
39176;SDS011;24904;52.208;21.192;2023-04-06T15:22:18;8.60;;;4.60;;
39176;SDS011;24904;52.208;21.192;2023-04-06T15:27:21;10.60;;;6.00;;
39176;SDS011;24904;52.208;21.192;2023-04-06T15:32:25;10.70;;;5.90;;
39176;SDS011;24904;52.208;21.192;2023-04-06T15:37:28;10.00;;;6.20;;
39176;SDS011;24904;52.208;21.192;2023-04-06T15:42:31;10.20;;;5.90;;
39176;SDS011;24904;52.208;21.192;2023-04-06T15:47:34;9.60;;;5.50;;
39176;SDS011;24904;52.208;21.192;2023-04-06T15:52:38;9.50;;;5.50;;
39176;SDS011;24904;52.208;21.192;2023-04-06T15:57:41;10.30;;;5.60;;
39176;SDS011;24904;52.208;21.192;2023-04-06T16:02:44;9.90;;;6.30;;
39176;SDS011;24904;52.208;21.192;2023-04-06T16:07:47;11.90;;;6.60;;
39176;SDS011;24904;52.208;21.192;2023-04-06T16:12:51;11.20;;;6.70;;
39176;SDS011;24904;52.208;21.192;2023-04-06T16:17:54;9.10;;;6.00;;
39176;SDS011;24904;52.208;21.192;2023-04-06T16:22:57;10.20;;;6.10;;
39176;SDS011;24904;52.208;21.192;2023-04-06T16:28:00;10.00;;;6.10;;
39176;SDS011;24904;52.208;21.192;2023-04-06T16:33:03;13.00;;;7.30;;
39176;SDS011;24904;52.208;21.192;2023-04-06T16:38:06;14.40;;;7.30;;
39176;SDS011;24904;52.208;21.192;2023-04-06T16:43:09;12.70;;;7.40;;
39176;SDS011;24904;52.208;21.192;2023-04-06T16:48:12;14.30;;;7.10;;
39176;SDS011;24904;52.208;21.192;2023-04-06T16:53:15;13.10;;;7.80;;
39176;SDS011;24904;52.208;21.192;2023-04-06T16:58:18;12.60;;;7.70;;
39176;SDS011;24904;52.208;21.192;2023-04-06T17:03:21;13.30;;;7.10;;
39176;SDS011;24904;52.208;21.192;2023-04-06T17:08:24;11.70;;;6.80;;
39176;SDS011;24904;52.208;21.192;2023-04-06T17:13:27;12.80;;;7.60;;
39176;SDS011;24904;52.208;21.192;2023-04-06T17:18:30;14.30;;;8.30;;
39176;SDS011;24904;52.208;21.192;2023-04-06T17:23:34;12.50;;;8.40;;
39176;SDS011;24904;52.208;21.192;2023-04-06T17:28:37;13.00;;;7.70;;
39176;SDS011;24904;52.208;21.192;2023-04-06T17:33:41;14.30;;;7.90;;
39176;SDS011;24904;52.208;21.192;2023-04-06T17:38:44;19.10;;;8.50;;
39176;SDS011;24904;52.208;21.192;2023-04-06T17:43:47;16.20;;;8.30;;
39176;SDS011;24904;52.208;21.192;2023-04-06T17:48:51;13.30;;;8.40;;
39176;SDS011;24904;52.208;21.192;2023-04-06T17:53:54;15.00;;;8.90;;
39176;SDS011;24904;52.208;21.192;2023-04-06T17:58:57;15.00;;;8.90;;
39176;SDS011;24904;52.208;21.192;2023-04-06T18:04:00;16.10;;;9.00;;
39176;SDS011;24904;52.208;21.192;2023-04-06T18:09:03;16.50;;;9.90;;
39176;SDS011;24904;52.208;21.192;2023-04-06T18:14:06;20.50;;;10.60;;
39176;SDS011;24904;52.208;21.192;2023-04-06T18:19:11;15.10;;;9.20;;
39176;SDS011;24904;52.208;21.192;2023-04-06T18:24:14;15.10;;;9.50;;
39176;SDS011;24904;52.208;21.192;2023-04-06T18:29:17;16.40;;;9.50;;
39176;SDS011;24904;52.208;21.192;2023-04-06T18:34:20;14.90;;;9.70;;
39176;SDS011;24904;52.208;21.192;2023-04-06T18:39:23;16.10;;;9.90;;
39176;SDS011;24904;52.208;21.192;2023-04-06T18:44:27;14.30;;;8.80;;
39176;SDS011;24904;52.208;21.192;2023-04-06T18:49:31;12.90;;;9.00;;
39176;SDS011;24904;52.208;21.192;2023-04-06T18:54:34;14.90;;;9.20;;
39176;SDS011;24904;52.208;21.192;2023-04-06T18:59:37;14.60;;;9.50;;
39176;SDS011;24904;52.208;21.192;2023-04-06T19:04:40;11.90;;;8.40;;
39176;SDS011;24904;52.208;21.192;2023-04-06T19:09:43;15.90;;;9.00;;
39176;SDS011;24904;52.208;21.192;2023-04-06T19:14:46;12.20;;;8.30;;
39176;SDS011;24904;52.208;21.192;2023-04-06T19:19:52;11.00;;;7.80;;
39176;SDS011;24904;52.208;21.192;2023-04-06T19:24:57;12.70;;;7.60;;
39176;SDS011;24904;52.208;21.192;2023-04-06T19:30:00;10.80;;;7.10;;
39176;SDS011;24904;52.208;21.192;2023-04-06T19:35:04;11.70;;;7.80;;
39176;SDS011;24904;52.208;21.192;2023-04-06T19:40:09;10.70;;;7.30;;
39176;SDS011;24904;52.208;21.192;2023-04-06T19:45:12;11.40;;;6.80;;
39176;SDS011;24904;52.208;21.192;2023-04-06T19:50:15;12.20;;;6.30;;
39176;SDS011;24904;52.208;21.192;2023-04-06T20:01:49;9.90;;;6.80;;
39176;SDS011;24904;52.208;21.192;2023-04-06T20:06:54;9.40;;;6.80;;
39176;SDS011;24904;52.208;21.192;2023-04-06T20:12:00;10.10;;;7.00;;
39176;SDS011;24904;52.208;21.192;2023-04-06T20:17:05;10.70;;;6.80;;
39176;SDS011;24904;52.208;21.192;2023-04-06T20:22:10;15.20;;;7.60;;
39176;SDS011;24904;52.208;21.192;2023-04-06T20:27:15;14.50;;;9.10;;
39176;SDS011;24904;52.208;21.192;2023-04-06T20:32:20;16.40;;;8.60;;
39176;SDS011;24904;52.208;21.192;2023-04-06T20:37:25;15.40;;;9.00;;
39176;SDS011;24904;52.208;21.192;2023-04-06T20:42:30;13.10;;;9.30;;
39176;SDS011;24904;52.208;21.192;2023-04-06T20:47:36;15.60;;;9.10;;
39176;SDS011;24904;52.208;21.192;2023-04-06T20:52:41;18.50;;;10.60;;
39176;SDS011;24904;52.208;21.192;2023-04-06T20:57:46;19.20;;;11.20;;
39176;SDS011;24904;52.208;21.192;2023-04-06T21:02:51;20.00;;;12.10;;
39176;SDS011;24904;52.208;21.192;2023-04-06T21:07:56;18.80;;;12.20;;
39176;SDS011;24904;52.208;21.192;2023-04-06T21:13:02;21.40;;;12.80;;
39176;SDS011;24904;52.208;21.192;2023-04-06T21:18:07;19.20;;;11.90;;
39176;SDS011;24904;52.208;21.192;2023-04-06T21:23:13;24.00;;;14.10;;
39176;SDS011;24904;52.208;21.192;2023-04-06T21:28:18;24.20;;;14.90;;
39176;SDS011;24904;52.208;21.192;2023-04-06T21:33:23;24.20;;;15.30;;
39176;SDS011;24904;52.208;21.192;2023-04-06T21:38:28;22.30;;;14.30;;
39176;SDS011;24904;52.208;21.192;2023-04-06T21:43:33;21.90;;;14.60;;
39176;SDS011;24904;52.208;21.192;2023-04-06T21:48:38;26.40;;;15.70;;
39176;SDS011;24904;52.208;21.192;2023-04-06T21:53:43;26.70;;;15.50;;
39176;SDS011;24904;52.208;21.192;2023-04-06T21:58:48;28.40;;;14.50;;
39176;SDS011;24904;52.208;21.192;2023-04-06T22:03:54;22.80;;;14.70;;
39176;SDS011;24904;52.208;21.192;2023-04-06T22:08:59;23.20;;;15.10;;
39176;SDS011;24904;52.208;21.192;2023-04-06T22:14:06;23.30;;;14.90;;
39176;SDS011;24904;52.208;21.192;2023-04-06T22:19:11;25.60;;;14.80;;
39176;SDS011;24904;52.208;21.192;2023-04-06T22:24:16;22.80;;;14.30;;
39176;SDS011;24904;52.208;21.192;2023-04-06T22:29:21;22.90;;;13.10;;
39176;SDS011;24904;52.208;21.192;2023-04-06T22:34:26;24.20;;;14.90;;
39176;SDS011;24904;52.208;21.192;2023-04-06T22:39:31;26.50;;;15.20;;
39176;SDS011;24904;52.208;21.192;2023-04-06T22:44:36;21.30;;;13.30;;
39176;SDS011;24904;52.208;21.192;2023-04-06T22:49:41;21.60;;;13.50;;
39176;SDS011;24904;52.208;21.192;2023-04-06T22:54:47;18.70;;;13.00;;
39176;SDS011;24904;52.208;21.192;2023-04-06T22:59:52;19.40;;;14.00;;
39176;SDS011;24904;52.208;21.192;2023-04-06T23:04:57;23.10;;;13.70;;
39176;SDS011;24904;52.208;21.192;2023-04-06T23:10:03;20.20;;;13.70;;
39176;SDS011;24904;52.208;21.192;2023-04-06T23:15:09;18.90;;;12.60;;
39176;SDS011;24904;52.208;21.192;2023-04-06T23:20:14;24.80;;;15.60;;
39176;SDS011;24904;52.208;21.192;2023-04-06T23:25:19;22.80;;;14.50;;
39176;SDS011;24904;52.208;21.192;2023-04-06T23:30:24;25.20;;;14.20;;
39176;SDS011;24904;52.208;21.192;2023-04-06T23:35:29;25.90;;;15.00;;
39176;SDS011;24904;52.208;21.192;2023-04-06T23:40:37;25.40;;;16.40;;
39176;SDS011;24904;52.208;21.192;2023-04-06T23:45:42;29.20;;;15.80;;
39176;SDS011;24904;52.208;21.192;2023-04-06T23:50:48;24.50;;;16.50;;
39176;SDS011;24904;52.208;21.192;2023-04-06T23:55:53;26.30;;;16.00;;
